createdAt,value
2023-04-25T00:01:21.086Z,98888.51
2023-04-25T00:03:52.003Z,98882.12
2023-04-25T00:06:21.529Z,98881.52
2023-04-25T00:08:51.913Z,98884.67
2023-04-25T00:11:19.952Z,98880.90
2023-04-25T00:13:51.238Z,98876.75
2023-04-25T00:16:20.042Z,98873.91
2023-04-25T00:18:51.952Z,98868.91
2023-04-25T00:21:20.507Z,98864.63
2023-04-25T00:23:50.181Z,98867.89
2023-04-25T00:26:19.803Z,98869.58
2023-04-25T00:28:47.927Z,98866.92
2023-04-25T00:31:16.753Z,98863.14
2023-04-25T00:33:45.072Z,98860.93
2023-04-25T00:36:14.445Z,98855.96
2023-04-25T00:38:43.314Z,98853.67
2023-04-25T00:41:11.673Z,98853.45
2023-04-25T00:43:40.946Z,98856.08
2023-04-25T00:46:11.381Z,98854.34
2023-04-25T00:48:41.658Z,98856.70
2023-04-25T00:51:18.437Z,98857.77
2023-04-25T00:53:50.497Z,98857.19
2023-04-25T00:56:19.736Z,98854.98
2023-04-25T00:58:47.353Z,98856.98
2023-04-25T01:01:17.702Z,98858.60
2023-04-25T01:03:47.177Z,98858.73
2023-04-25T01:06:16.271Z,98857.54
2023-04-25T01:08:44.660Z,98857.59
2023-04-25T01:11:12.366Z,98861.50
2023-04-25T01:13:41.004Z,98859.77
2023-04-25T01:16:11.237Z,98860.00
2023-04-25T01:18:41.803Z,98857.12
2023-04-25T01:21:12.233Z,98853.54
2023-04-25T01:23:41.794Z,98852.89
2023-04-25T01:26:14.404Z,98849.00
2023-04-25T01:28:43.672Z,98846.05
2023-04-25T01:31:15.856Z,98844.77
2023-04-25T01:33:47.165Z,98845.34
2023-04-25T01:36:16.230Z,98846.03
2023-04-25T01:38:44.699Z,98849.41
2023-04-25T01:41:13.095Z,98849.80
2023-04-25T01:43:41.120Z,98852.45
2023-04-25T01:46:09.403Z,98849.48
2023-04-25T01:48:38.387Z,98850.42
2023-04-25T01:51:12.981Z,98854.25
2023-04-25T01:53:46.789Z,98854.82
2023-04-25T01:56:17.019Z,98855.66
2023-04-25T01:58:48.530Z,98860.71
2023-04-25T02:01:38.411Z,98860.74
2023-04-25T02:04:24.236Z,98863.67
2023-04-25T02:06:52.461Z,98863.61
2023-04-25T02:09:20.844Z,98866.86
2023-04-25T02:11:54.197Z,98871.98
2023-04-25T02:14:36.719Z,98872.09
2023-04-25T02:17:09.546Z,98868.52
2023-04-25T02:19:40.033Z,98870.95
2023-04-25T02:22:09.278Z,98872.16
2023-04-25T02:24:38.374Z,98878.02
2023-04-25T02:27:06.497Z,98876.58
2023-04-25T02:29:36.678Z,98874.84
2023-04-25T02:32:06.803Z,98868.44
2023-04-25T02:34:34.825Z,98869.58
2023-04-25T02:37:02.106Z,98867.70
2023-04-25T02:39:30.339Z,98870.68
2023-04-25T02:41:59.939Z,98866.72
2023-04-25T02:44:32.020Z,98865.65
2023-04-25T02:47:01.438Z,98859.76
2023-04-25T02:49:29.184Z,98859.25
2023-04-25T02:51:57.670Z,98858.33
2023-04-25T02:54:28.151Z,98858.45
2023-04-25T02:56:56.980Z,98863.58
2023-04-25T02:59:29.670Z,98866.70
2023-04-25T03:01:59.053Z,98868.71
2023-04-25T03:04:29.532Z,98870.88
2023-04-25T03:06:58.005Z,98872.58
2023-04-25T03:09:27.248Z,98873.58
2023-04-25T03:11:59.473Z,98870.02
2023-04-25T03:14:28.937Z,98867.27
2023-04-25T03:16:58.935Z,98867.08
2023-04-25T03:19:27.678Z,98866.39
2023-04-25T03:21:59.095Z,98866.71
2023-04-25T03:24:31.291Z,98863.77
2023-04-25T03:27:06.416Z,98860.14
2023-04-25T03:29:34.634Z,98857.09
2023-04-25T03:32:06.062Z,98862.05
2023-04-25T03:34:36.858Z,98863.35
2023-04-25T03:37:04.547Z,98860.58
2023-04-25T03:39:36.982Z,98862.90
2023-04-25T03:42:06.095Z,98860.21
2023-04-25T03:44:33.743Z,98861.84
2023-04-25T03:47:03.580Z,98860.84
2023-04-25T03:49:34.584Z,98862.95
2023-04-25T03:52:05.263Z,98866.90
2023-04-25T03:54:38.672Z,98868.70
2023-04-25T03:57:09.472Z,98870.80
2023-04-25T03:59:42.614Z,98872.54
2023-04-25T04:02:12.103Z,98874.54
2023-04-25T04:04:41.264Z,98878.61
2023-04-25T04:07:11.176Z,98880.67
2023-04-25T04:09:42.482Z,98878.63
2023-04-25T04:12:16.396Z,98881.77
2023-04-25T04:14:44.296Z,98885.48
2023-04-25T04:17:14.830Z,98887.90
2023-04-25T04:19:42.405Z,98887.48
2023-04-25T04:22:15.746Z,98889.08
2023-04-25T04:24:47.948Z,98891.40
2023-04-25T04:27:22.111Z,98899.25
2023-04-25T04:29:58.102Z,98898.64
2023-04-25T04:32:41.159Z,98901.74
2023-04-25T04:35:09.814Z,98899.23
2023-04-25T04:37:38.687Z,98908.02
2023-04-25T04:40:12.374Z,98908.17
2023-04-25T04:43:09.533Z,98910.33
2023-04-25T04:45:50.773Z,98910.44
2023-04-25T04:48:42.335Z,98912.23
2023-04-25T04:51:31.862Z,98911.54
2023-04-25T04:54:26.287Z,98910.84
2023-04-25T04:57:12.183Z,98915.27
2023-04-25T04:59:54.126Z,98909.38
2023-04-25T05:02:49.839Z,98913.69
2023-04-25T05:05:36.279Z,98919.42
2023-04-25T05:08:32.886Z,98921.59
2023-04-25T05:11:16.078Z,98912.90
2023-04-25T05:14:00.063Z,98920.16
2023-04-25T05:16:46.351Z,98914.48
2023-04-25T05:19:34.557Z,98907.48
2023-04-25T05:22:16.048Z,98910.70
2023-04-25T05:25:04.496Z,98913.55
2023-04-25T05:28:03.993Z,98916.79
2023-04-25T05:30:43.067Z,98920.47
2023-04-25T05:33:18.063Z,98927.09
2023-04-25T05:35:50.459Z,98927.77
2023-04-25T05:38:20.668Z,98930.09
2023-04-25T05:54:04.227Z,98942.38
2023-04-25T05:56:34.484Z,98945.33
2023-04-25T05:59:03.848Z,98949.12
2023-04-25T06:01:38.468Z,98950.75
2023-04-25T06:04:11.723Z,98952.11
2023-04-25T06:06:40.490Z,98953.94
2023-04-25T06:09:09.513Z,98954.36
2023-04-25T06:11:39.094Z,98958.92
2023-04-25T06:14:10.324Z,98956.45
2023-04-25T06:16:41.106Z,98962.31
2023-04-25T06:19:09.779Z,98961.58
2023-04-25T06:21:38.299Z,98963.80
2023-04-25T06:24:07.371Z,98965.78
2023-04-25T06:26:35.935Z,98971.68
2023-04-25T06:29:05.543Z,98973.05
2023-04-25T06:31:34.535Z,98974.38
2023-04-25T06:34:04.023Z,98972.75
2023-04-25T06:36:34.119Z,98971.06
2023-04-25T06:39:06.437Z,98973.40
2023-04-25T06:41:35.873Z,98971.20
2023-04-25T06:44:04.014Z,98970.18
2023-04-25T06:46:41.343Z,98977.98
2023-04-25T06:49:09.886Z,98971.05
2023-04-25T06:51:38.566Z,98977.64
2023-04-25T06:54:08.071Z,98977.32
2023-04-25T06:56:42.227Z,98982.67
2023-04-25T06:59:14.124Z,98981.85
2023-04-25T07:01:43.322Z,98981.05
2023-04-25T07:15:57.237Z,98997.92
2023-04-25T07:18:29.199Z,98993.56
2023-04-25T07:21:02.152Z,99001.61
2023-04-25T07:23:34.385Z,99001.26
2023-04-25T07:26:06.478Z,99007.55
2023-04-25T07:28:33.913Z,99010.35
2023-04-25T07:31:01.945Z,99011.56
2023-04-25T07:33:31.906Z,99007.06
2023-04-25T07:36:01.821Z,99007.10
2023-04-25T07:38:31.198Z,99009.20
2023-04-25T07:40:59.345Z,99001.33
2023-04-25T07:43:27.456Z,99008.46
2023-04-25T07:45:59.060Z,99013.85
2023-04-25T07:48:28.439Z,99019.74
2023-04-25T07:50:56.040Z,99020.29
2023-04-25T07:53:23.413Z,99026.92
2023-04-25T07:55:57.598Z,99018.67
2023-04-25T07:58:26.449Z,99024.73
2023-04-25T08:01:00.838Z,99025.31
2023-04-25T08:03:43.812Z,99025.90
2023-04-25T08:06:20.724Z,99028.71
2023-04-25T08:08:54.764Z,99032.44
2023-04-25T08:11:23.223Z,99033.36
2023-04-25T08:13:51.189Z,99032.19
2023-04-25T08:16:21.590Z,99029.63
2023-04-25T08:18:50.381Z,99031.36
2023-04-25T08:21:18.234Z,99032.36
2023-04-25T08:23:46.210Z,99035.36
2023-04-25T08:26:21.963Z,99037.06
2023-04-25T08:28:49.681Z,99037.74
2023-04-25T08:31:17.951Z,99038.94
2023-04-25T08:33:53.345Z,99046.79
2023-04-25T08:36:38.570Z,99043.64
2023-04-25T08:39:28.560Z,99047.40
2023-04-25T08:42:25.357Z,99051.48
2023-04-25T08:44:54.741Z,99048.58
2023-04-25T08:47:23.653Z,99047.21
2023-04-25T08:49:57.278Z,99052.59
2023-04-25T08:52:25.493Z,99049.41
2023-04-25T08:54:55.530Z,99056.79
2023-04-25T08:57:24.897Z,99054.00
2023-04-25T08:59:53.914Z,99058.40
2023-04-25T09:02:23.592Z,99065.86
2023-04-25T09:04:52.748Z,99066.77
2023-04-25T09:07:24.334Z,99073.58
2023-04-25T09:09:52.881Z,99069.09
2023-04-25T09:12:23.332Z,99070.26
2023-04-25T09:15:06.202Z,99075.73
2023-04-25T09:17:59.854Z,99079.92
2023-04-25T09:21:00.840Z,99077.83
2023-04-25T09:23:31.459Z,99079.92
2023-04-25T09:26:00.286Z,99080.91
2023-04-25T09:28:31.112Z,99084.69
2023-04-25T09:31:01.509Z,99080.53
2023-04-25T09:33:44.161Z,99084.83
2023-04-25T09:36:17.122Z,99082.92
2023-04-25T09:39:15.824Z,99085.27
2023-04-25T09:41:49.012Z,99087.43
2023-04-25T09:44:25.523Z,99081.98
2023-04-25T09:46:54.939Z,99084.95
2023-04-25T09:49:29.490Z,99084.88
2023-04-25T09:52:11.955Z,99085.23
2023-04-25T09:54:47.388Z,99086.16
2023-04-25T09:57:17.972Z,99091.58
2023-04-25T09:59:48.892Z,99099.22
2023-04-25T10:02:22.632Z,99099.70
2023-04-25T10:04:56.123Z,99096.29
2023-04-25T10:07:31.222Z,99098.58
2023-04-25T10:10:03.126Z,99095.70
2023-04-25T10:12:32.502Z,99090.23
2023-04-25T10:15:04.332Z,99092.89
2023-04-25T10:17:34.958Z,99089.66
2023-04-25T10:21:01.577Z,99096.62
2023-04-25T10:23:31.435Z,99097.63
2023-04-25T10:26:00.826Z,99098.65
2023-04-25T10:28:29.925Z,99102.30
2023-04-25T10:31:01.348Z,99101.56
2023-04-25T10:33:37.506Z,99099.06
2023-04-25T10:36:15.793Z,99093.45
2023-04-25T10:38:46.681Z,99096.20
2023-04-25T10:41:15.916Z,99096.95
2023-04-25T10:43:48.912Z,99105.70
2023-04-25T10:46:19.276Z,99108.11
2023-04-25T10:48:49.155Z,99111.59
2023-04-25T10:51:22.967Z,99113.55
2023-04-25T10:53:56.567Z,99108.20
2023-04-25T11:00:53.135Z,99113.85
2023-04-25T11:03:53.053Z,99111.07
2023-04-25T11:06:24.596Z,99110.40
2023-04-25T11:08:53.579Z,99109.45
2023-04-25T11:11:24.942Z,99106.56
2023-04-25T11:13:56.754Z,99107.83
2023-04-25T11:19:14.147Z,99109.58
2023-04-25T11:21:42.144Z,99109.67
2023-04-25T11:24:18.136Z,99113.02
2023-04-25T11:26:58.103Z,99118.41
2023-04-25T11:29:30.510Z,99117.80
2023-04-25T11:32:01.410Z,99121.73
2023-04-25T11:34:34.656Z,99120.14
2023-04-25T11:37:03.929Z,99119.83
2023-04-25T11:39:32.448Z,99121.11
2023-04-25T11:42:02.613Z,99125.87
2023-04-25T11:44:31.539Z,99122.83
2023-04-25T11:47:00.475Z,99122.94
2023-04-25T11:49:32.366Z,99120.27
2023-04-25T11:52:02.246Z,99117.80
2023-04-25T11:54:30.828Z,99114.36
2023-04-25T11:56:58.363Z,99115.05
2023-04-25T11:59:27.298Z,99118.15
2023-04-25T12:01:54.993Z,99113.05
2023-04-25T12:04:25.764Z,99110.61
2023-04-25T12:06:55.592Z,99116.20
2023-04-25T12:09:33.192Z,99109.35
2023-04-25T12:12:05.252Z,99113.10
2023-04-25T12:14:34.469Z,99116.13
2023-04-25T12:17:03.972Z,99120.27
2023-04-25T12:19:35.882Z,99120.69
2023-04-25T12:22:04.355Z,99126.21
2023-04-25T12:24:38.599Z,99131.20
2023-04-25T12:27:44.940Z,99131.27
2023-04-25T12:30:14.217Z,99127.36
2023-04-25T12:32:42.118Z,99125.21
2023-04-25T12:35:10.249Z,99126.17
2023-04-25T12:37:38.071Z,99126.54
2023-04-25T12:40:07.823Z,99129.51
2023-04-25T12:42:35.618Z,99123.88
2023-04-25T12:45:03.550Z,99123.71
2023-04-25T12:47:36.183Z,99122.76
2023-04-25T12:50:05.800Z,99124.33
2023-04-25T12:52:36.067Z,99122.20
2023-04-25T12:55:05.329Z,99127.63
2023-04-25T12:57:33.719Z,99126.77
2023-04-25T13:00:05.454Z,99127.77
2023-04-25T13:02:34.584Z,99127.73
2023-04-25T13:05:05.186Z,99122.60
2023-04-25T13:07:35.959Z,99120.33
2023-04-25T13:10:04.856Z,99122.50
2023-04-25T13:12:36.208Z,99118.02
2023-04-25T13:15:04.824Z,99118.74
2023-04-25T13:17:35.151Z,99120.15
2023-04-25T13:20:06.755Z,99118.67
2023-04-25T13:22:37.617Z,99122.88
2023-04-25T13:25:05.974Z,99125.38
2023-04-25T13:27:36.575Z,99126.40
2023-04-25T13:30:14.435Z,99125.10
2023-04-25T13:32:41.940Z,99121.41
2023-04-25T13:35:11.218Z,99125.90
2023-04-25T13:37:40.153Z,99130.08
2023-04-25T13:40:10.827Z,99125.50
2023-04-25T13:42:40.001Z,99126.80
2023-04-25T13:45:13.192Z,99126.41
2023-04-25T13:47:42.462Z,99126.51
2023-04-25T13:50:14.416Z,99126.95
2023-04-25T13:52:45.299Z,99126.30
2023-04-25T13:55:13.430Z,99126.73
2023-04-25T13:57:42.293Z,99131.70
2023-04-25T14:00:10.707Z,99131.89
2023-04-25T14:02:40.448Z,99134.77
2023-04-25T14:05:11.272Z,99139.15
2023-04-25T14:07:45.839Z,99137.03
2023-04-25T14:10:17.105Z,99139.46
2023-04-25T14:12:45.201Z,99137.98
2023-04-25T14:15:14.921Z,99144.37
2023-04-25T14:17:46.716Z,99146.27
2023-04-25T14:20:20.997Z,99145.96
2023-04-25T14:22:48.868Z,99144.40
2023-04-25T14:25:18.597Z,99147.63
2023-04-25T14:27:50.341Z,99147.27
2023-04-25T14:30:19.412Z,99147.70
2023-04-25T14:32:47.303Z,99146.90
2023-04-25T14:35:19.479Z,99144.16
2023-04-25T14:37:49.457Z,99145.85
2023-04-25T14:40:18.760Z,99141.63
2023-04-25T14:42:48.434Z,99146.88
2023-04-25T14:45:16.346Z,99144.70
2023-04-25T14:47:44.323Z,99149.39
2023-04-25T14:50:25.913Z,99150.66
2023-04-25T14:52:55.017Z,99149.27
2023-04-25T14:55:24.000Z,99152.77
2023-04-25T14:57:54.181Z,99150.86
2023-04-25T15:00:25.878Z,99151.56
2023-04-25T15:02:58.209Z,99149.86
2023-04-25T15:05:27.589Z,99151.04
2023-04-25T15:07:56.011Z,99152.13
2023-04-25T15:10:32.475Z,99153.52
2023-04-25T15:13:02.224Z,99154.34
2023-04-25T15:15:31.664Z,99156.44
2023-04-25T15:18:19.447Z,99157.52
2023-04-25T15:21:19.540Z,99156.60
2023-04-25T15:23:51.429Z,99159.30
2023-04-25T15:29:39.081Z,99158.05
2023-04-25T15:32:10.573Z,99160.77
2023-04-25T15:35:04.916Z,99156.55
2023-04-25T15:42:33.986Z,99155.84
2023-04-25T15:45:09.055Z,99158.38
2023-04-25T15:47:38.351Z,99156.17
2023-04-25T15:50:09.955Z,99157.77
2023-04-25T15:52:37.978Z,99154.65
2023-04-25T15:55:11.189Z,99153.18
2023-04-25T15:57:38.937Z,99153.20
2023-04-25T16:00:33.909Z,99151.92
2023-04-25T16:03:13.182Z,99153.42
2023-04-25T16:05:54.571Z,99152.81
2023-04-25T16:08:43.474Z,99150.86
2023-04-25T16:11:21.088Z,99148.15
2023-04-25T16:13:50.707Z,99153.42
2023-04-25T16:16:19.619Z,99152.41
2023-04-25T16:18:48.431Z,99151.11
2023-04-25T16:21:32.715Z,99154.27
2023-04-25T16:24:00.925Z,99154.47
2023-04-25T16:26:30.189Z,99154.45
2023-04-25T16:28:58.771Z,99150.66
2023-04-25T16:31:26.512Z,99150.34
2023-04-25T16:54:55.604Z,99171.55
2023-04-25T16:57:23.356Z,99175.67
2023-04-25T16:59:53.217Z,99172.55
2023-04-25T17:02:45.833Z,99170.68
2023-04-25T17:05:14.508Z,99175.77
2023-04-25T17:07:41.817Z,99178.30
2023-04-25T17:10:12.058Z,99176.35
2023-04-25T17:12:40.422Z,99180.27
2023-04-25T17:15:11.814Z,99182.33
2023-04-25T17:17:42.817Z,99181.44
2023-04-25T17:20:15.935Z,99186.13
2023-04-25T17:22:54.656Z,99182.80
2023-04-25T17:25:47.913Z,99187.98
2023-04-25T17:28:26.087Z,99189.70
2023-04-25T17:31:10.818Z,99191.92
2023-04-25T17:33:51.814Z,99190.60
2023-04-25T17:36:22.882Z,99196.55
2023-04-25T17:38:56.975Z,99194.64
2023-04-25T17:41:53.449Z,99200.38
2023-04-25T17:44:22.186Z,99195.48
2023-04-25T17:46:55.218Z,99198.73
2023-04-25T17:49:24.725Z,99204.89
2023-04-25T17:51:55.355Z,99207.05
2023-04-25T17:54:25.346Z,99214.04
2023-04-25T17:56:54.106Z,99222.70
2023-04-25T17:59:22.699Z,99227.73
2023-04-25T18:01:52.313Z,99226.23
2023-04-25T18:04:20.747Z,99235.55
2023-04-25T18:06:49.633Z,99242.89
2023-04-25T18:09:22.889Z,99241.98
2023-04-25T18:11:53.813Z,99249.43
2023-04-25T18:14:25.280Z,99251.65
2023-04-25T18:16:54.900Z,99257.92
2023-04-25T18:19:24.609Z,99262.40
2023-04-25T18:21:58.441Z,99265.83
2023-04-25T18:24:31.318Z,99264.30
2023-04-25T18:27:02.459Z,99266.36
2023-04-25T18:29:34.113Z,99272.56
2023-04-25T18:32:05.418Z,99276.20
2023-04-25T18:34:41.831Z,99284.84
2023-04-25T18:37:13.483Z,99285.98
2023-04-25T18:39:43.407Z,99291.46
2023-04-25T18:42:15.950Z,99296.02
2023-04-25T18:44:46.472Z,99302.73
2023-04-25T18:47:15.641Z,99308.03
2023-04-25T18:49:45.813Z,99308.80
2023-04-25T18:52:22.268Z,99312.69
2023-04-25T18:54:51.870Z,99313.96
2023-04-25T18:57:22.813Z,99321.97
2023-04-25T18:59:54.889Z,99322.94
2023-04-25T19:02:33.817Z,99324.66
2023-04-25T19:05:07.021Z,99328.54
2023-04-25T19:07:38.608Z,99328.56
2023-04-25T19:10:09.755Z,99329.91
2023-04-25T19:12:40.200Z,99327.72
2023-04-25T19:15:14.708Z,99332.11
2023-04-25T19:17:46.127Z,99333.67
2023-04-25T19:20:21.318Z,99333.84
2023-04-25T19:22:53.478Z,99337.76
2023-04-25T19:25:24.971Z,99338.94
2023-04-25T19:27:57.740Z,99337.36
2023-04-25T19:30:40.260Z,99336.73
2023-04-25T19:33:19.207Z,99343.04
2023-04-25T19:35:49.043Z,99347.46
2023-04-25T19:38:21.543Z,99351.23
2023-04-25T19:40:58.783Z,99355.73
2023-04-25T19:43:31.221Z,99364.05
2023-04-25T19:48:44.209Z,99362.08
2023-04-25T19:51:13.492Z,99361.88
2023-04-25T19:53:46.225Z,99361.73
2023-04-25T19:56:15.837Z,99364.11
2023-04-25T19:58:44.375Z,99366.48
2023-04-25T20:01:15.631Z,99369.23
2023-04-25T20:03:50.441Z,99371.10
2023-04-25T20:06:18.903Z,99373.17
2023-04-25T20:08:47.506Z,99376.00
2023-04-25T20:11:17.532Z,99378.16
2023-04-25T20:13:49.283Z,99382.50
2023-04-25T20:16:20.682Z,99378.78
2023-04-25T20:18:52.175Z,99379.41
2023-04-25T20:21:23.962Z,99387.49
2023-04-25T20:23:53.171Z,99390.63
2023-04-25T20:26:22.775Z,99389.84
2023-04-25T20:28:52.847Z,99390.87
2023-04-25T20:31:23.152Z,99398.36
2023-04-25T20:33:56.293Z,99397.23
2023-04-25T20:36:24.993Z,99402.15
2023-04-25T20:38:56.093Z,99403.14
2023-04-25T20:41:23.893Z,99406.36
2023-04-25T20:43:52.997Z,99407.71
2023-04-25T20:46:23.287Z,99413.12
2023-04-25T20:48:53.021Z,99414.61
2023-04-25T20:51:21.274Z,99416.63
2023-04-25T20:53:49.813Z,99422.54
2023-04-25T20:56:18.734Z,99425.90
2023-04-25T20:58:46.108Z,99423.96
2023-04-25T21:01:16.464Z,99419.55
2023-04-25T21:03:48.498Z,99417.91
2023-04-25T21:06:17.882Z,99415.14
2023-04-25T21:08:46.140Z,99418.71
2023-04-25T21:11:14.465Z,99421.90
2023-04-25T21:13:45.461Z,99420.66
2023-04-25T21:16:14.748Z,99424.61
2023-04-25T21:18:47.990Z,99423.35
2023-04-25T21:21:15.532Z,99424.02
2023-04-25T21:23:43.269Z,99419.75
2023-04-25T21:26:13.213Z,99424.56
2023-04-25T21:28:44.252Z,99427.52
2023-04-25T21:31:19.281Z,99425.42
2023-04-25T21:33:46.634Z,99429.31
2023-04-25T21:36:17.281Z,99426.04
2023-04-25T21:38:47.348Z,99428.17
2023-04-25T21:41:16.636Z,99428.36
2023-04-25T21:43:45.422Z,99426.83
2023-04-25T21:46:23.485Z,99424.55
2023-04-25T21:48:54.737Z,99417.59
2023-04-25T21:51:24.384Z,99413.41
2023-04-25T21:53:55.655Z,99416.61
2023-04-25T21:56:29.551Z,99417.87
2023-04-25T21:58:59.544Z,99416.77
2023-04-25T22:01:28.216Z,99419.81
2023-04-25T22:03:57.074Z,99418.29
2023-04-25T22:06:26.688Z,99417.34
2023-04-25T22:08:56.042Z,99419.27
2023-04-25T22:11:27.583Z,99420.64
2023-04-25T22:13:55.301Z,99421.09
2023-04-25T22:16:22.662Z,99422.00
2023-04-25T22:18:51.828Z,99423.97
2023-04-25T22:21:21.348Z,99420.95
2023-04-25T22:23:52.128Z,99423.76
2023-04-25T22:26:20.822Z,99425.05
2023-04-25T22:28:51.146Z,99427.91
2023-04-25T22:31:21.088Z,99428.34
2023-04-25T22:33:48.733Z,99430.65
2023-04-25T22:36:18.165Z,99429.17
2023-04-25T22:38:46.590Z,99430.82
2023-04-25T22:41:14.974Z,99429.36
2023-04-25T22:43:43.346Z,99429.97
2023-04-25T22:46:18.626Z,99429.90
2023-04-25T22:48:48.096Z,99429.83
2023-04-25T22:51:17.413Z,99426.73
2023-04-25T22:53:48.587Z,99420.77
2023-04-25T22:56:17.046Z,99419.20
2023-04-25T22:58:46.137Z,99416.37
2023-04-25T23:01:16.834Z,99416.73
2023-04-25T23:03:48.466Z,99418.28
2023-04-25T23:06:18.640Z,99420.53
2023-04-25T23:08:47.598Z,99425.45
2023-04-25T23:11:18.752Z,99428.71
2023-04-25T23:13:47.130Z,99425.68
2023-04-25T23:16:16.561Z,99426.98
2023-04-25T23:18:46.564Z,99427.77
2023-04-25T23:21:15.434Z,99427.17
2023-04-25T23:23:43.335Z,99431.58
2023-04-25T23:26:13.951Z,99430.51
2023-04-25T23:28:44.258Z,99431.65
2023-04-25T23:31:14.108Z,99429.81
2023-04-25T23:33:41.644Z,99430.27
2023-04-25T23:36:22.421Z,99429.85
2023-04-25T23:38:50.309Z,99430.67
2023-04-25T23:41:19.258Z,99427.44
2023-04-25T23:43:48.494Z,99430.72
2023-04-25T23:46:18.954Z,99433.70
2023-04-25T23:48:46.955Z,99438.34
2023-04-25T23:51:15.576Z,99440.96
2023-04-25T23:53:42.886Z,99439.50
2023-04-25T23:56:10.858Z,99441.16
2023-04-25T23:58:38.256Z,99441.17
